createdAt,value
2019-05-12T00:00:22.296Z,2.10
2019-05-12T00:02:51.388Z,2.30
2019-05-12T00:05:20.541Z,2.30
2019-05-12T00:07:49.732Z,2.23
2019-05-12T00:10:18.841Z,2.10
2019-05-12T00:12:48.582Z,2.20
2019-05-12T00:15:19.259Z,2.13
2019-05-12T00:17:48.792Z,2.27
2019-05-12T00:20:18.498Z,2.00
2019-05-12T00:22:51.212Z,2.20
2019-05-12T00:25:20.396Z,2.60
2019-05-12T00:27:49.524Z,2.13
2019-05-12T00:30:33.915Z,2.43
2019-05-12T00:33:04.487Z,2.60
2019-05-12T00:35:33.845Z,2.60
2019-05-12T00:38:02.970Z,2.53
2019-05-12T00:40:32.058Z,2.60
2019-05-12T00:43:01.170Z,2.50
2019-05-12T00:45:30.296Z,2.27
2019-05-12T00:47:59.403Z,2.50
2019-05-12T00:50:29.076Z,2.43
2019-05-12T00:52:58.490Z,2.83
2019-05-12T00:55:28.882Z,2.23
2019-05-12T00:57:58.493Z,2.33
2019-05-12T01:00:29.657Z,2.73
2019-05-12T01:02:59.056Z,2.60
2019-05-12T01:05:29.375Z,3.03
2019-05-12T01:07:58.774Z,3.27
2019-05-12T01:10:28.643Z,3.70
2019-05-12T01:12:58.488Z,3.00
2019-05-12T01:15:29.037Z,2.50
2019-05-12T01:17:58.691Z,2.87
2019-05-12T01:20:28.555Z,3.27
2019-05-12T01:22:58.204Z,2.40
2019-05-12T01:25:29.069Z,2.40
2019-05-12T01:27:59.056Z,2.30
2019-05-12T01:30:28.753Z,2.70
2019-05-12T01:32:58.537Z,2.50
2019-05-12T01:35:39.918Z,2.50
2019-05-12T01:38:09.020Z,2.40
2019-05-12T01:40:39.469Z,2.40
2019-05-12T01:43:09.147Z,2.60
2019-05-12T01:45:38.496Z,2.80
2019-05-12T01:48:09.426Z,2.97
2019-05-12T01:50:39.197Z,2.80
2019-05-12T01:53:08.676Z,2.27
2019-05-12T01:55:38.906Z,2.70
2019-05-12T01:58:08.741Z,2.90
2019-05-12T02:00:38.983Z,3.03
2019-05-12T02:03:09.342Z,2.10
2019-05-12T02:05:40.331Z,2.90
2019-05-12T02:08:13.557Z,3.13
2019-05-12T02:10:42.967Z,2.73
2019-05-12T02:13:12.063Z,2.27
2019-05-12T02:15:42.220Z,2.63
2019-05-12T02:18:11.313Z,2.93
2019-05-12T02:20:40.401Z,2.57
2019-05-12T02:23:09.480Z,2.50
2019-05-12T02:25:38.605Z,2.50
2019-05-12T02:28:09.289Z,3.03
2019-05-12T02:30:41.563Z,2.60
2019-05-12T02:33:09.297Z,2.80
2019-05-12T02:35:38.421Z,2.50
2019-05-12T02:38:07.520Z,3.33
2019-05-12T02:40:36.621Z,2.80
2019-05-12T02:43:24.972Z,3.00
2019-05-12T02:45:54.751Z,3.10
2019-05-12T02:48:24.682Z,2.63
2019-05-12T02:50:54.570Z,3.10
2019-05-12T02:53:24.879Z,3.43
2019-05-12T02:55:55.593Z,3.00
2019-05-12T02:58:25.585Z,2.77
2019-05-12T03:00:56.254Z,2.73
2019-05-12T03:03:26.921Z,2.20
2019-05-12T03:05:57.608Z,2.57
2019-05-12T03:08:26.711Z,2.90
2019-05-12T03:10:56.792Z,3.10
2019-05-12T03:13:25.871Z,3.20
2019-05-12T03:15:55.144Z,2.90
2019-05-12T03:18:25.476Z,2.97
2019-05-12T03:20:54.849Z,2.50
2019-05-12T03:23:24.902Z,3.03
2019-05-12T03:25:54.760Z,2.90
2019-05-12T03:28:25.825Z,2.83
2019-05-12T03:30:57.874Z,2.83
2019-05-12T03:33:33.279Z,2.33
2019-05-12T03:36:00.776Z,2.60
2019-05-12T03:38:27.950Z,2.60
2019-05-12T03:40:57.363Z,2.20
2019-05-12T03:43:26.440Z,2.80
2019-05-12T03:45:56.267Z,2.90
2019-05-12T03:48:25.458Z,2.47
2019-05-12T03:50:54.590Z,2.20
2019-05-12T03:53:24.790Z,2.70
2019-05-12T03:55:55.207Z,2.50
2019-05-12T03:58:25.621Z,2.60
2019-05-12T04:00:55.456Z,2.50
2019-05-12T04:03:24.910Z,1.90
2019-05-12T04:05:55.378Z,2.83
2019-05-12T04:08:24.829Z,2.67
2019-05-12T04:10:54.781Z,1.97
2019-05-12T04:13:26.493Z,2.50
2019-05-12T04:15:55.827Z,2.40
2019-05-12T04:18:25.153Z,2.97
2019-05-12T04:20:54.631Z,2.00
2019-05-12T04:23:24.774Z,2.10
2019-05-12T04:26:07.386Z,2.40
2019-05-12T04:28:25.354Z,2.47
2019-05-12T04:30:54.648Z,2.10
2019-05-12T04:33:25.721Z,2.40
2019-05-12T04:35:55.367Z,2.30
2019-05-12T04:38:25.034Z,2.23
2019-05-12T04:40:55.394Z,2.10
2019-05-12T04:43:25.391Z,2.53
2019-05-12T04:45:54.983Z,2.50
2019-05-12T04:48:25.698Z,2.30
2019-05-12T04:50:55.127Z,2.03
2019-05-12T04:53:25.167Z,2.30
2019-05-12T04:56:07.405Z,2.03
2019-05-12T04:58:25.694Z,1.90
2019-05-12T05:00:54.980Z,1.97
2019-05-12T05:03:24.803Z,2.20
2019-05-12T05:05:54.889Z,2.30
2019-05-12T05:08:24.546Z,2.13
2019-05-12T05:10:54.773Z,2.30
2019-05-12T05:13:24.593Z,2.30
2019-05-12T05:15:54.889Z,2.10
2019-05-12T05:18:24.268Z,2.00
2019-05-12T05:20:54.159Z,2.17
2019-05-12T05:23:24.141Z,2.33
2019-05-12T05:25:53.936Z,2.10
2019-05-12T05:28:23.699Z,2.17
2019-05-12T05:30:53.548Z,2.07
2019-05-12T05:33:23.884Z,2.50
2019-05-12T05:35:54.277Z,2.20
2019-05-12T05:38:23.735Z,2.30
2019-05-12T05:40:54.147Z,2.23
2019-05-12T05:43:24.195Z,1.90
2019-05-12T05:46:01.823Z,2.30
2019-05-12T05:48:24.336Z,1.70
2019-05-12T05:50:54.066Z,2.30
2019-05-12T05:53:24.278Z,2.40
2019-05-12T05:55:56.329Z,2.37
2019-05-12T05:58:26.168Z,2.10
2019-05-12T06:01:02.964Z,2.57
2019-05-12T06:03:27.886Z,2.10
2019-05-12T06:06:01.556Z,1.80
2019-05-12T06:08:27.483Z,2.40
2019-05-12T06:10:56.591Z,2.13
2019-05-12T06:13:27.326Z,2.17
2019-05-12T06:15:56.495Z,2.30
2019-05-12T06:18:28.724Z,2.30
2019-05-12T06:20:56.388Z,2.60
2019-05-12T06:23:28.997Z,2.33
2019-05-12T06:25:56.465Z,2.23
2019-05-12T06:49:24.677Z,2.50
2019-05-12T06:52:01.302Z,2.80
2019-05-12T06:54:24.862Z,2.30
2019-05-12T06:56:57.827Z,2.57
2019-05-12T06:59:24.816Z,3.00
2019-05-12T07:01:56.091Z,2.47
2019-05-12T07:04:24.728Z,2.13
2019-05-12T07:06:56.341Z,2.47
2019-05-12T07:09:28.724Z,2.03
2019-05-12T07:12:02.789Z,2.17
2019-05-12T07:14:27.421Z,1.90
2019-05-12T07:17:02.820Z,2.73
2019-05-12T07:19:33.772Z,2.20
2019-05-12T07:22:03.559Z,2.43
2019-05-12T07:24:34.218Z,2.27
2019-05-12T07:27:08.958Z,2.47
2019-05-12T07:29:34.433Z,2.40
2019-05-12T07:32:08.838Z,2.90
2019-05-12T07:34:34.412Z,2.13
2019-05-12T07:37:04.410Z,2.63
2019-05-12T07:39:39.313Z,2.00
2019-05-12T07:42:05.221Z,2.13
2019-05-12T07:44:40.273Z,2.00
2019-05-12T07:47:07.132Z,2.40
2019-05-12T07:49:38.576Z,2.93
2019-05-12T07:52:07.112Z,2.10
2019-05-12T07:54:39.501Z,2.13
2019-05-12T07:57:11.879Z,7.63
2019-05-12T07:59:40.981Z,1.80
2019-05-12T08:02:08.728Z,4.20
2019-05-12T08:04:39.809Z,2.23
2019-05-12T08:07:08.625Z,2.60
2019-05-12T08:09:37.754Z,2.03
2019-05-12T08:12:09.601Z,2.77
2019-05-12T08:14:37.652Z,1.93
2019-05-12T08:17:11.230Z,2.43
2019-05-12T08:19:37.548Z,2.10
2019-05-12T08:22:06.622Z,1.93
2019-05-12T08:24:42.865Z,1.80
2019-05-12T08:27:06.764Z,1.67
2019-05-12T08:29:35.899Z,2.20
2019-05-12T08:32:09.781Z,1.93
2019-05-12T08:34:35.882Z,2.20
2019-05-12T08:37:06.048Z,2.40
2019-05-12T08:39:35.172Z,1.80
2019-05-12T08:42:04.364Z,1.87
2019-05-12T08:44:40.181Z,2.20
2019-05-12T08:47:04.250Z,1.73
2019-05-12T08:49:49.473Z,2.40
2019-05-12T08:52:04.484Z,2.27
2019-05-12T08:54:34.398Z,2.00
2019-05-12T08:57:03.894Z,2.30
2019-05-12T08:59:34.168Z,1.70
2019-05-12T09:02:07.286Z,2.30
2019-05-12T09:04:34.152Z,2.00
2019-05-12T09:07:04.384Z,1.47
2019-05-12T09:09:33.749Z,2.73
2019-05-12T09:12:03.549Z,1.77
2019-05-12T09:14:40.712Z,1.87
2019-05-12T09:17:07.197Z,2.13
2019-05-12T09:19:34.784Z,1.87
2019-05-12T09:22:05.513Z,2.00
2019-05-12T09:24:34.749Z,2.63
2019-05-12T09:27:08.589Z,2.77
2019-05-12T09:29:34.962Z,1.80
2019-05-12T09:32:05.483Z,1.77
2019-05-12T09:34:34.925Z,2.00
2019-05-12T09:37:04.212Z,1.80
2019-05-12T09:39:42.279Z,2.10
2019-05-12T09:42:04.414Z,1.43
2019-05-12T09:44:34.052Z,1.50
2019-05-12T09:47:04.041Z,1.57
2019-05-12T09:49:39.246Z,1.60
2019-05-12T09:52:05.129Z,1.77
2019-05-12T09:54:40.632Z,1.60
2019-05-12T09:57:05.442Z,1.63
2019-05-12T09:59:34.568Z,1.70
2019-05-12T10:02:03.858Z,1.37
2019-05-12T10:04:33.133Z,1.50
2019-05-12T10:07:03.819Z,1.50
2019-05-12T10:09:33.533Z,1.27
2019-05-12T10:12:05.330Z,1.73
2019-05-12T10:14:33.610Z,1.40
2019-05-12T10:17:03.596Z,1.60
2019-05-12T10:19:34.042Z,1.00
2019-05-12T10:22:03.324Z,1.67
2019-05-12T10:24:40.589Z,1.73
2019-05-12T10:27:03.789Z,1.80
2019-05-12T10:29:33.125Z,2.10
2019-05-12T10:32:04.050Z,1.60
2019-05-12T10:34:38.133Z,1.47
2019-05-12T10:37:04.206Z,1.70
2019-05-12T10:39:33.632Z,1.50
2019-05-12T10:42:02.968Z,1.60
2019-05-12T10:44:37.503Z,1.77
2019-05-12T10:47:04.760Z,3.30
2019-05-12T10:49:34.857Z,2.10
2019-05-12T10:52:04.227Z,1.73
2019-05-12T10:54:34.316Z,1.70
2019-05-12T10:57:05.038Z,1.20
2019-05-12T10:59:38.739Z,1.53
2019-05-12T11:02:05.128Z,1.70
2019-05-12T11:04:39.004Z,1.63
2019-05-12T11:07:05.367Z,1.37
2019-05-12T11:09:34.697Z,1.60
2019-05-12T11:12:04.111Z,1.60
2019-05-12T11:14:34.204Z,2.07
2019-05-12T11:17:07.521Z,1.63
2019-05-12T11:19:40.917Z,1.70
2019-05-12T11:22:07.160Z,1.77
2019-05-12T11:24:36.263Z,2.33
2019-05-12T11:27:05.352Z,1.80
2019-05-12T11:29:45.611Z,1.87
2019-05-12T11:32:05.473Z,1.80
2019-05-12T11:34:34.585Z,1.80
2019-05-12T11:37:03.686Z,2.20
2019-05-12T11:39:38.765Z,1.70
2019-05-12T11:42:04.189Z,1.83
2019-05-12T11:44:33.783Z,2.17
2019-05-12T11:47:03.651Z,3.67
2019-05-12T11:49:33.601Z,1.40
2019-05-12T11:52:08.559Z,2.13
2019-05-12T11:54:33.684Z,1.90
2019-05-12T11:57:02.923Z,1.90
2019-05-12T11:59:34.036Z,1.57
2019-05-12T12:02:02.788Z,1.97
2019-05-12T12:04:47.281Z,1.53
2019-05-12T12:07:16.556Z,2.00
2019-05-12T12:09:49.620Z,1.93
2019-05-12T12:12:16.434Z,2.40
2019-05-12T12:14:50.204Z,1.80
2019-05-12T12:17:16.398Z,1.63
2019-05-12T12:19:46.922Z,2.10
2019-05-12T12:22:20.365Z,1.73
2019-05-12T12:24:47.539Z,2.80
2019-05-12T12:27:16.769Z,1.90
2019-05-12T12:29:45.852Z,1.63
2019-05-12T12:32:18.481Z,2.20
2019-05-12T12:34:45.724Z,1.93
2019-05-12T12:37:18.837Z,1.73
2019-05-12T12:39:45.604Z,1.57
2019-05-12T12:42:14.716Z,1.50
2019-05-12T12:44:43.839Z,1.60
2019-05-12T12:47:13.909Z,1.80
2019-05-12T12:49:45.231Z,2.20
2019-05-12T12:52:14.156Z,2.17
2019-05-12T12:54:43.889Z,1.40
2019-05-12T12:57:13.752Z,1.70
2019-05-12T12:59:51.014Z,1.80
2019-05-12T13:02:14.221Z,1.77
2019-05-12T13:04:47.555Z,2.00
2019-05-12T13:07:14.297Z,1.90
2019-05-12T13:09:44.068Z,1.70
2019-05-12T13:12:15.823Z,1.63
2019-05-12T13:14:44.515Z,1.40
2019-05-12T13:17:14.216Z,2.13
2019-05-12T13:19:48.694Z,1.60
2019-05-12T13:22:18.826Z,1.77
2019-05-12T13:24:45.547Z,1.50
2019-05-12T13:27:19.156Z,1.17
2019-05-12T13:29:45.423Z,1.63
2019-05-12T13:32:14.506Z,1.43
2019-05-12T13:34:43.697Z,2.13
2019-05-12T13:37:15.462Z,1.60
2019-05-12T13:39:55.335Z,1.67
2019-05-12T13:42:14.429Z,1.50
2019-05-12T13:44:44.001Z,1.70
2019-05-12T13:47:14.053Z,1.60
2019-05-12T13:49:47.323Z,1.50
2019-05-12T13:52:14.170Z,2.00
2019-05-12T13:54:43.775Z,1.97
2019-05-12T13:57:13.403Z,2.23
2019-05-12T13:59:43.556Z,1.50
2019-05-12T14:02:16.234Z,1.60
2019-05-12T14:04:44.347Z,1.57
2019-05-12T14:07:17.742Z,2.30
2019-05-12T14:09:44.505Z,1.90
2019-05-12T14:12:13.730Z,1.47
2019-05-12T14:14:43.679Z,2.07
2019-05-12T14:17:14.843Z,1.60
2019-05-12T14:19:46.022Z,2.00
2019-05-12T14:22:21.166Z,1.73
2019-05-12T14:24:46.780Z,1.90
2019-05-12T14:27:19.109Z,2.50
2019-05-12T14:29:46.963Z,2.03
2019-05-12T14:32:17.362Z,4.67
2019-05-12T14:34:51.027Z,1.53
2019-05-12T14:37:18.702Z,1.60
2019-05-12T14:39:50.295Z,1.70
2019-05-12T14:42:18.572Z,1.90
2019-05-12T14:44:49.598Z,1.80
2019-05-12T14:47:19.363Z,1.70
2019-05-12T14:49:49.240Z,2.10
2019-05-12T14:52:18.396Z,1.60
2019-05-12T14:54:47.864Z,1.60
2019-05-12T14:57:17.037Z,2.50
2019-05-12T14:59:46.140Z,2.10
2019-05-12T15:02:19.446Z,1.73
2019-05-12T15:04:46.372Z,1.90
2019-05-12T15:07:15.520Z,3.00
2019-05-12T15:09:44.613Z,2.20
2019-05-12T15:12:14.126Z,1.90
2019-05-12T15:14:43.861Z,1.93
2019-05-12T15:17:22.246Z,2.00
2019-05-12T15:19:44.125Z,2.47
2019-05-12T15:22:14.943Z,2.00
2019-05-12T15:24:44.254Z,2.47
2019-05-12T15:27:13.585Z,2.03
2019-05-12T15:29:42.982Z,2.30
2019-05-12T15:32:12.406Z,2.03
2019-05-12T15:34:41.617Z,1.90
2019-05-12T15:37:10.720Z,2.00
2019-05-12T15:39:39.804Z,2.53
2019-05-12T15:42:08.893Z,2.10
2019-05-12T15:44:38.260Z,2.40
2019-05-12T15:47:07.338Z,1.93
2019-05-12T15:49:36.441Z,2.27
2019-05-12T15:52:05.656Z,2.40
2019-05-12T15:54:36.233Z,2.10
2019-05-12T15:57:05.529Z,2.20
2019-05-12T15:59:34.693Z,2.53
2019-05-12T16:02:12.386Z,2.07
2019-05-12T16:04:42.546Z,1.90
2019-05-12T16:07:05.522Z,2.20
2019-05-12T16:09:34.746Z,2.20
2019-05-12T16:12:09.347Z,2.00
2019-05-12T16:14:36.887Z,2.47
2019-05-12T16:17:06.645Z,2.23
2019-05-12T16:19:35.923Z,1.83
2019-05-12T16:22:05.355Z,1.67
2019-05-12T16:24:34.427Z,1.93
2019-05-12T16:27:03.784Z,2.00
2019-05-12T16:29:33.998Z,2.30
2019-05-12T16:32:04.941Z,2.10
2019-05-12T16:34:36.101Z,2.47
2019-05-12T16:37:05.172Z,2.10
2019-05-12T16:39:37.008Z,1.70
2019-05-12T16:42:08.300Z,2.03
2019-05-12T16:44:35.837Z,2.60
2019-05-12T16:47:04.921Z,2.30
2019-05-12T16:49:35.228Z,2.43
2019-05-12T16:52:04.927Z,3.13
2019-05-12T16:54:34.020Z,2.50
2019-05-12T16:57:06.321Z,2.97
2019-05-12T16:59:33.901Z,1.97
2019-05-12T17:02:05.526Z,2.43
2019-05-12T17:04:34.103Z,2.47
2019-05-12T17:07:03.212Z,2.37
2019-05-12T17:09:33.203Z,1.90
2019-05-12T17:12:04.931Z,2.37
2019-05-12T17:14:38.816Z,2.17
2019-05-12T17:17:04.168Z,2.80
2019-05-12T17:19:34.207Z,2.33
2019-05-12T17:22:04.083Z,2.00
2019-05-12T17:24:34.419Z,1.93
2019-05-12T17:27:03.901Z,2.40
2019-05-12T17:29:34.845Z,2.40
2019-05-12T17:32:04.241Z,1.40
2019-05-12T17:34:34.148Z,2.33
2019-05-12T17:37:03.945Z,2.23
2019-05-12T17:39:37.298Z,2.50
2019-05-12T17:42:04.197Z,2.10
2019-05-12T17:44:36.631Z,2.10
2019-05-12T17:47:04.073Z,2.10
2019-05-12T17:49:33.163Z,2.50
2019-05-12T17:52:12.451Z,2.87
2019-05-12T17:54:34.167Z,2.70
2019-05-12T17:57:03.966Z,2.67
2019-05-12T17:59:33.402Z,2.70
2019-05-12T18:02:05.609Z,2.47
2019-05-12T18:04:36.793Z,2.33
2019-05-12T18:07:13.161Z,2.40
2019-05-12T18:09:36.012Z,2.20
2019-05-12T18:12:05.173Z,2.17
2019-05-12T18:14:44.601Z,2.90
2019-05-12T18:17:08.681Z,2.23
2019-05-12T18:19:35.854Z,2.07
2019-05-12T18:22:09.337Z,2.20
2019-05-12T18:24:35.936Z,2.20
2019-05-12T18:27:07.694Z,2.13
2019-05-12T18:29:35.957Z,2.47
2019-05-12T18:32:08.295Z,2.53
2019-05-12T18:34:36.100Z,2.77
2019-05-12T18:37:05.504Z,2.87
2019-05-12T18:39:34.761Z,2.47
2019-05-12T18:42:03.842Z,2.17
2019-05-12T18:44:32.931Z,2.10
2019-05-12T18:47:04.110Z,2.60
2019-05-12T18:49:34.271Z,1.90
2019-05-12T18:52:04.048Z,2.70
2019-05-12T18:54:34.527Z,2.17
2019-05-12T18:57:07.310Z,2.30
2019-05-12T18:59:36.073Z,2.13
2019-05-12T19:02:05.731Z,1.97
2019-05-12T19:04:39.747Z,2.17
2019-05-12T19:07:06.688Z,2.73
2019-05-12T19:09:36.368Z,2.10
2019-05-12T19:12:15.662Z,2.07
2019-05-12T19:14:40.493Z,2.97
2019-05-12T19:17:09.576Z,2.63
2019-05-12T19:19:39.275Z,3.50
2019-05-12T19:22:09.840Z,2.90
2019-05-12T19:24:40.708Z,2.20
2019-05-12T19:27:15.819Z,3.00
2019-05-12T19:29:48.271Z,2.30
2019-05-12T19:32:14.362Z,2.40
2019-05-12T19:34:46.299Z,2.57
2019-05-12T19:37:19.358Z,2.87
2019-05-12T19:39:45.370Z,2.63
2019-05-12T19:42:18.564Z,3.20
2019-05-12T19:44:45.560Z,2.70
2019-05-12T19:47:14.656Z,2.10
2019-05-12T19:49:50.053Z,2.70
2019-05-12T19:52:14.952Z,2.53
2019-05-12T19:54:44.410Z,2.47
2019-05-12T19:57:21.603Z,2.27
2019-05-12T19:59:50.899Z,2.50
2019-05-12T20:02:15.807Z,2.87
2019-05-12T20:04:51.717Z,3.17
2019-05-12T20:07:15.700Z,2.90
2019-05-12T20:09:54.585Z,2.80
2019-05-12T20:12:18.913Z,2.93
2019-05-12T20:14:51.064Z,3.40
2019-05-12T20:17:18.385Z,2.67
2019-05-12T20:19:47.512Z,2.97
2019-05-12T20:22:16.629Z,3.50
2019-05-12T20:24:45.748Z,2.60
2019-05-12T20:27:17.364Z,2.67
2019-05-12T20:29:45.621Z,3.20
2019-05-12T20:32:14.723Z,3.10
2019-05-12T20:34:49.201Z,3.70
2019-05-12T20:37:16.831Z,3.13
2019-05-12T20:39:51.184Z,2.57
2019-05-12T20:42:18.364Z,3.13
2019-05-12T20:44:51.282Z,2.30
2019-05-12T20:47:18.237Z,2.63
2019-05-12T20:49:51.198Z,3.33
2019-05-12T20:52:18.227Z,3.10
2019-05-12T20:54:49.100Z,3.30
2019-05-12T20:57:18.272Z,3.10
2019-05-12T20:59:47.356Z,3.50
2019-05-12T21:02:16.449Z,3.47
2019-05-12T21:04:59.864Z,2.97
2019-05-12T21:07:21.943Z,3.93
2019-05-12T21:09:47.446Z,3.30
2019-05-12T21:12:16.538Z,3.40
2019-05-12T21:14:51.544Z,3.50
2019-05-12T21:17:18.438Z,3.53
2019-05-12T21:19:56.165Z,3.00
2019-05-12T21:22:18.742Z,3.40
2019-05-12T21:24:47.877Z,3.20
2019-05-12T21:27:19.855Z,3.30
2019-05-12T21:29:47.887Z,3.70
2019-05-12T21:32:17.268Z,3.30
2019-05-12T21:34:46.340Z,3.17
2019-05-12T21:37:15.493Z,4.03
2019-05-12T21:39:49.203Z,3.40
2019-05-12T21:42:15.724Z,3.93
2019-05-12T21:44:47.046Z,4.00
2019-05-12T21:47:15.667Z,4.27
2019-05-12T21:49:48.574Z,3.87
2019-05-12T21:52:15.984Z,3.53
2019-05-12T21:54:45.064Z,3.97
2019-05-12T21:57:14.244Z,3.50
2019-05-12T21:59:43.477Z,4.10
2019-05-12T22:02:14.684Z,3.60
2019-05-12T22:04:45.755Z,3.37
2019-05-12T22:07:15.184Z,3.30
2019-05-12T22:09:46.862Z,3.60
2019-05-12T22:12:15.288Z,3.73
2019-05-12T22:14:46.280Z,2.97
2019-05-12T22:17:15.172Z,3.50
2019-05-12T22:19:44.440Z,3.27
2019-05-12T22:22:13.715Z,3.00
2019-05-12T22:24:44.123Z,3.33
2019-05-12T22:27:21.992Z,3.63
2019-05-12T22:29:44.609Z,4.43
2019-05-12T22:32:13.900Z,3.30
2019-05-12T22:34:44.670Z,3.10
2019-05-12T22:37:13.995Z,3.83
2019-05-12T22:39:44.517Z,2.90
2019-05-12T22:42:20.258Z,3.57
2019-05-12T22:44:44.528Z,3.37
2019-05-12T22:47:17.400Z,3.30
2019-05-12T22:49:44.453Z,2.73
2019-05-12T22:52:13.807Z,3.30
2019-05-12T22:54:46.898Z,4.40
2019-05-12T22:57:14.785Z,3.43
2019-05-12T22:59:44.851Z,3.40
2019-05-12T23:02:18.041Z,4.43
2019-05-12T23:04:45.040Z,3.17
2019-05-12T23:07:19.095Z,3.20
2019-05-12T23:09:45.159Z,3.70
2019-05-12T23:12:18.530Z,4.47
2019-05-12T23:14:45.048Z,5.00
2019-05-12T23:17:14.144Z,3.20
2019-05-12T23:19:51.590Z,3.10
2019-05-12T23:22:14.333Z,3.43
2019-05-12T23:24:44.126Z,3.27
2019-05-12T23:27:13.718Z,3.00
2019-05-12T23:29:44.397Z,3.63
2019-05-12T23:32:15.042Z,3.33
2019-05-12T23:34:53.085Z,3.87
2019-05-12T23:37:15.286Z,3.13
2019-05-12T23:39:44.377Z,3.40
2019-05-12T23:42:13.752Z,3.10
2019-05-12T23:44:44.185Z,3.63
2019-05-12T23:47:13.500Z,3.17
2019-05-12T23:49:44.402Z,2.80
2019-05-12T23:52:14.125Z,3.57
2019-05-12T23:54:44.445Z,3.13
2019-05-12T23:57:15.746Z,4.07
2019-05-12T23:59:44.689Z,3.77
